createdAt,value
2019-04-25T04:01:00.344Z,6.35
2019-04-25T04:02:01.228Z,6.31
2019-04-25T04:03:00.639Z,6.30
2019-04-25T04:04:00.813Z,6.30
2019-04-25T04:05:00.981Z,6.28
2019-04-25T04:06:01.159Z,6.27
2019-04-25T04:07:01.317Z,6.28
2019-04-25T04:08:01.490Z,6.20
2019-04-25T04:09:01.652Z,6.30
2019-04-25T04:10:03.549Z,6.20
2019-04-25T04:11:01.996Z,6.22
2019-04-25T04:12:04.302Z,6.20
2019-04-25T04:13:04.203Z,6.08
2019-04-25T04:14:03.977Z,5.99
2019-04-25T04:15:04.733Z,6.05
2019-04-25T04:16:03.406Z,6.01
2019-04-25T04:17:05.049Z,6.14
2019-04-25T04:18:05.110Z,6.08
2019-04-25T04:19:04.923Z,6.12
2019-04-25T04:20:03.930Z,6.17
2019-04-25T04:21:03.676Z,6.24
2019-04-25T04:22:03.829Z,6.17
2019-04-25T04:23:04.002Z,6.16
2019-04-25T04:24:04.166Z,6.20
2019-04-25T04:25:04.313Z,6.22
2019-04-25T04:26:05.497Z,6.20
2019-04-25T04:27:06.603Z,6.28
2019-04-25T04:28:06.139Z,6.30
2019-04-25T04:29:05.926Z,6.24
2019-04-25T04:30:06.393Z,6.26
2019-04-25T04:31:06.535Z,6.19
2019-04-25T04:32:06.835Z,6.22
2019-04-25T04:33:06.866Z,6.27
2019-04-25T04:34:06.337Z,6.30
2019-04-25T04:35:06.541Z,6.31
2019-04-25T04:36:07.336Z,6.30
2019-04-25T04:37:07.492Z,6.33
2019-04-25T04:38:08.048Z,6.35
2019-04-25T04:39:07.783Z,6.30
2019-04-25T04:40:07.925Z,6.33
2019-04-25T04:41:07.975Z,6.17
2019-04-25T04:42:07.565Z,6.07
2019-04-25T04:43:08.009Z,5.99
2019-04-25T04:44:08.231Z,5.89
2019-04-25T04:45:08.444Z,5.91
2019-04-25T04:46:08.643Z,5.97
2019-04-25T04:47:08.548Z,5.86
2019-04-25T04:48:08.751Z,5.90
2019-04-25T04:49:08.781Z,5.84
2019-04-25T04:50:09.018Z,5.89
2019-04-25T04:51:09.036Z,5.90
2019-04-25T04:52:09.328Z,5.89
2019-04-25T04:53:09.263Z,6.01
2019-04-25T04:54:09.504Z,5.97
2019-04-25T04:55:11.265Z,6.04
2019-04-25T04:56:09.683Z,6.19
2019-04-25T04:57:23.471Z,6.19
2019-04-25T04:58:11.039Z,6.22
2019-04-25T04:59:10.861Z,6.30
2019-04-25T05:00:11.096Z,6.19
2019-04-25T05:01:11.039Z,6.24
2019-04-25T05:02:11.443Z,6.27
2019-04-25T05:03:11.184Z,6.22
2019-04-25T05:04:10.883Z,6.27
2019-04-25T05:05:12.040Z,6.19
2019-04-25T05:06:11.206Z,6.30
2019-04-25T05:07:11.375Z,6.27
2019-04-25T05:08:12.612Z,6.28
2019-04-25T05:09:12.451Z,6.33
2019-04-25T05:10:14.379Z,6.20
2019-04-25T05:11:12.951Z,6.28
2019-04-25T05:12:13.430Z,6.27
2019-04-25T05:13:14.593Z,6.30
2019-04-25T05:14:14.887Z,6.24
2019-04-25T05:15:16.209Z,6.28
2019-04-25T05:16:14.894Z,6.22
2019-04-25T05:17:15.158Z,6.17
2019-04-25T05:18:15.621Z,6.28
2019-04-25T05:19:15.460Z,6.31
2019-04-25T05:20:16.028Z,6.35
2019-04-25T05:21:15.719Z,6.38
2019-04-25T05:22:14.826Z,6.46
2019-04-25T05:23:15.092Z,6.54
2019-04-25T05:24:16.011Z,6.56
2019-04-25T05:25:16.225Z,6.60
2019-04-25T05:26:15.997Z,6.64
2019-04-25T05:27:16.665Z,6.67
2019-04-25T05:28:16.184Z,6.75
2019-04-25T05:29:19.759Z,6.82
2019-04-25T05:30:16.576Z,6.78
2019-04-25T05:31:16.812Z,6.87
2019-04-25T05:32:16.989Z,6.88
2019-04-25T05:33:18.523Z,6.82
2019-04-25T05:34:17.141Z,6.89
2019-04-25T05:35:16.340Z,7.03
2019-04-25T05:36:17.280Z,7.05
2019-04-25T05:37:16.395Z,7.05
2019-04-25T05:38:16.586Z,7.03
2019-04-25T05:39:18.057Z,7.13
2019-04-25T05:40:17.181Z,7.11
2019-04-25T05:41:17.090Z,7.10
2019-04-25T05:42:17.271Z,7.18
2019-04-25T05:43:18.351Z,7.24
2019-04-25T05:44:17.552Z,7.21
2019-04-25T05:45:18.954Z,7.35
2019-04-25T05:46:17.873Z,7.43
2019-04-25T05:47:20.461Z,7.43
2019-04-25T05:48:18.968Z,7.54
2019-04-25T05:49:19.082Z,7.58
2019-04-25T05:50:18.543Z,7.57
2019-04-25T05:51:19.473Z,7.76
2019-04-25T05:52:19.830Z,7.85
2019-04-25T05:53:19.768Z,7.95
2019-04-25T05:54:19.193Z,7.97
2019-04-25T05:55:20.232Z,8.09
2019-04-25T05:56:20.137Z,8.23
2019-04-25T05:57:19.671Z,8.20
2019-04-25T05:58:20.447Z,8.41
2019-04-25T05:59:20.002Z,8.42
2019-04-25T06:00:20.705Z,8.60
2019-04-25T06:01:20.761Z,8.63
2019-04-25T06:02:21.501Z,8.67
2019-04-25T06:03:20.846Z,8.84
2019-04-25T06:04:21.061Z,8.95
2019-04-25T06:05:21.168Z,8.95
2019-04-25T06:06:21.243Z,9.16
2019-04-25T06:07:21.521Z,9.11
2019-04-25T06:08:21.593Z,9.21
2019-04-25T06:09:21.869Z,9.23
2019-04-25T06:10:21.975Z,9.36
2019-04-25T06:11:23.578Z,9.39
2019-04-25T06:12:23.704Z,9.43
2019-04-25T06:13:23.847Z,9.58
2019-04-25T06:14:24.033Z,9.59
2019-04-25T06:15:24.034Z,9.72
2019-04-25T06:16:25.654Z,9.76
2019-04-25T06:17:24.576Z,9.84
2019-04-25T06:18:24.785Z,9.84
2019-04-25T06:19:25.165Z,9.83
2019-04-25T06:20:24.603Z,10.01
2019-04-25T06:21:24.586Z,9.99
2019-04-25T06:22:24.670Z,10.04
2019-04-25T06:23:24.587Z,10.12
2019-04-25T06:24:25.814Z,10.15
2019-04-25T06:25:29.767Z,10.22
2019-04-25T06:26:34.726Z,10.22
2019-04-25T06:27:25.875Z,10.38
2019-04-25T06:28:24.897Z,10.48
2019-04-25T06:29:25.003Z,10.44
2019-04-25T06:30:25.973Z,10.74
2019-04-25T06:31:26.846Z,10.75
2019-04-25T06:32:26.904Z,10.78
2019-04-25T06:33:25.927Z,10.76
2019-04-25T06:34:28.373Z,10.90
2019-04-25T06:35:26.637Z,10.93
2019-04-25T06:36:27.056Z,10.96
2019-04-25T06:37:27.014Z,11.08
2019-04-25T06:38:27.485Z,11.18
2019-04-25T06:39:26.694Z,11.27
2019-04-25T06:40:29.426Z,11.43
2019-04-25T06:41:27.131Z,11.55
2019-04-25T06:42:27.212Z,11.69
2019-04-25T06:43:27.989Z,11.73
2019-04-25T06:44:28.478Z,11.73
2019-04-25T06:45:28.050Z,11.88
2019-04-25T06:46:28.699Z,11.95
2019-04-25T06:47:28.038Z,11.97
2019-04-25T06:48:28.979Z,12.18
2019-04-25T06:49:29.296Z,12.24
2019-04-25T06:50:29.037Z,12.35
2019-04-25T06:51:28.706Z,12.39
2019-04-25T06:52:31.003Z,12.57
2019-04-25T06:53:29.038Z,12.62
2019-04-25T06:54:29.565Z,12.68
2019-04-25T06:55:30.165Z,12.83
2019-04-25T06:56:29.522Z,12.94
2019-04-25T06:57:30.455Z,13.12
2019-04-25T06:58:30.148Z,13.19
2019-04-25T06:59:30.147Z,13.16
2019-04-25T07:00:34.167Z,13.27
2019-04-25T07:01:30.480Z,13.25
2019-04-25T07:02:30.969Z,13.37
2019-04-25T07:03:31.500Z,13.42
2019-04-25T07:04:33.648Z,13.59
2019-04-25T07:05:35.764Z,13.68
2019-04-25T07:06:31.402Z,13.81
2019-04-25T07:07:31.452Z,13.81
2019-04-25T07:08:31.592Z,13.90
2019-04-25T07:09:34.302Z,14.10
2019-04-25T07:10:33.560Z,14.12
2019-04-25T07:11:32.964Z,14.11
2019-04-25T07:12:34.170Z,14.29
2019-04-25T07:13:35.215Z,14.43
2019-04-25T07:14:33.848Z,14.45
2019-04-25T07:15:34.123Z,14.58
2019-04-25T07:16:33.792Z,14.59
2019-04-25T07:17:34.701Z,14.60
2019-04-25T07:18:36.308Z,14.69
2019-04-25T07:19:34.354Z,14.79
2019-04-25T07:20:34.550Z,14.73
2019-04-25T07:21:34.678Z,14.70
2019-04-25T07:22:35.313Z,14.77
2019-04-25T07:23:34.597Z,14.81
2019-04-25T07:24:35.305Z,14.96
2019-04-25T07:25:35.377Z,15.07
2019-04-25T07:26:39.527Z,15.10
2019-04-25T07:27:35.563Z,15.09
2019-04-25T07:28:36.101Z,15.21
2019-04-25T07:29:35.720Z,15.22
2019-04-25T07:30:48.671Z,15.35
2019-04-25T07:31:35.707Z,15.46
2019-04-25T07:32:35.783Z,15.49
2019-04-25T07:33:35.914Z,15.51
2019-04-25T07:34:36.665Z,15.54
2019-04-25T07:35:36.011Z,15.44
2019-04-25T07:36:36.293Z,15.47
2019-04-25T07:37:37.868Z,15.52
2019-04-25T07:38:36.511Z,15.64
2019-04-25T07:39:36.671Z,15.72
2019-04-25T07:40:36.842Z,15.88
2019-04-25T07:41:38.432Z,15.97
2019-04-25T07:42:37.182Z,16.24
2019-04-25T07:43:37.341Z,16.42
2019-04-25T07:44:49.292Z,16.87
2019-04-25T07:45:38.296Z,17.06
2019-04-25T07:46:39.925Z,17.14
2019-04-25T07:47:38.042Z,17.44
2019-04-25T07:48:38.235Z,17.71
2019-04-25T07:49:38.389Z,18.08
2019-04-25T07:50:38.534Z,18.38
2019-04-25T07:51:38.712Z,18.53
2019-04-25T07:52:38.853Z,18.75
2019-04-25T07:53:39.009Z,19.14
2019-04-25T07:54:39.187Z,19.34
2019-04-25T07:55:39.342Z,19.44
2019-04-25T07:56:39.528Z,19.58
2019-04-25T07:57:39.690Z,19.89
2019-04-25T07:58:49.251Z,20.04
2019-04-25T07:59:40.036Z,20.28
2019-04-25T08:00:40.188Z,20.34
2019-04-25T08:01:40.344Z,20.26
2019-04-25T08:02:40.530Z,20.50
2019-04-25T08:03:40.671Z,20.59
2019-04-25T08:04:40.859Z,20.67
2019-04-25T08:05:41.048Z,20.80
2019-04-25T08:06:41.197Z,20.65
2019-04-25T08:07:41.359Z,20.88
2019-04-25T08:08:41.531Z,20.99
2019-04-25T08:09:41.695Z,21.35
2019-04-25T08:10:43.404Z,21.46
2019-04-25T08:11:43.390Z,21.66
2019-04-25T08:12:43.983Z,21.92
2019-04-25T08:13:43.657Z,22.41
2019-04-25T08:14:43.765Z,22.53
2019-04-25T08:15:43.689Z,22.91
2019-04-25T08:16:44.209Z,23.06
2019-04-25T08:17:44.139Z,23.10
2019-04-25T08:18:43.427Z,23.13
2019-04-25T08:19:44.269Z,23.34
2019-04-25T08:20:43.571Z,23.36
2019-04-25T08:21:45.079Z,23.58
2019-04-25T08:22:55.445Z,23.47
2019-04-25T08:23:44.029Z,23.20
2019-04-25T08:24:44.169Z,23.20
2019-04-25T08:25:44.343Z,23.36
2019-04-25T08:26:44.519Z,23.15
2019-04-25T08:27:45.079Z,23.56
2019-04-25T08:28:54.449Z,23.48
2019-04-25T08:29:45.604Z,23.47
2019-04-25T08:30:45.180Z,23.55
2019-04-25T08:31:45.430Z,23.71
2019-04-25T08:32:45.559Z,23.73
2019-04-25T08:33:46.640Z,23.68
2019-04-25T08:34:45.883Z,23.81
2019-04-25T08:36:03.372Z,24.29
2019-04-25T08:36:46.209Z,24.50
2019-04-25T08:37:46.380Z,24.57
2019-04-25T08:38:46.552Z,24.38
2019-04-25T08:39:46.704Z,24.38
2019-04-25T08:40:46.877Z,24.63
2019-04-25T08:41:47.051Z,24.54
2019-04-25T08:42:47.237Z,24.48
2019-04-25T08:43:47.362Z,24.76
2019-04-25T08:44:47.534Z,24.86
2019-04-25T08:45:47.723Z,25.07
2019-04-25T08:46:48.784Z,25.26
2019-04-25T08:47:48.032Z,25.21
2019-04-25T08:48:48.202Z,25.16
2019-04-25T08:49:49.542Z,25.26
2019-04-25T08:50:48.545Z,25.29
2019-04-25T08:51:48.702Z,25.69
2019-04-25T08:52:48.907Z,25.99
2019-04-25T08:53:49.073Z,26.23
2019-04-25T08:54:49.215Z,26.40
2019-04-25T08:55:49.392Z,26.23
2019-04-25T08:56:49.564Z,26.34
2019-04-25T08:57:49.743Z,26.29
2019-04-25T08:59:03.299Z,26.22
2019-04-25T08:59:52.681Z,26.43
2019-04-25T09:00:59.269Z,26.23
2019-04-25T09:01:50.391Z,25.65
2019-04-25T09:02:50.573Z,25.54
2019-04-25T09:03:50.735Z,25.44
2019-04-25T09:04:50.897Z,25.13
2019-04-25T09:05:51.142Z,25.47
2019-04-25T09:06:51.259Z,25.48
2019-04-25T09:07:51.429Z,25.14
2019-04-25T09:08:51.595Z,25.03
2019-04-25T09:09:53.222Z,25.22
2019-04-25T09:10:53.472Z,25.28
2019-04-25T09:11:52.102Z,25.04
2019-04-25T09:12:53.735Z,25.07
2019-04-25T09:13:53.745Z,25.21
2019-04-25T09:14:54.143Z,25.11
2019-04-25T09:15:54.052Z,25.03
2019-04-25T09:16:53.374Z,25.31
2019-04-25T09:17:54.760Z,25.14
2019-04-25T09:18:53.969Z,25.10
2019-04-25T09:19:54.180Z,25.35
2019-04-25T09:20:54.003Z,25.41
2019-04-25T09:21:53.779Z,25.46
2019-04-25T09:22:54.359Z,25.63
2019-04-25T09:23:54.140Z,25.78
2019-04-25T09:24:54.278Z,26.07
2019-04-25T09:25:54.511Z,26.10
2019-04-25T09:26:54.612Z,26.23
2019-04-25T09:27:54.775Z,26.58
2019-04-25T09:28:54.973Z,26.45
2019-04-25T09:29:55.123Z,26.52
2019-04-25T09:30:55.281Z,26.38
2019-04-25T09:31:55.477Z,26.44
2019-04-25T09:32:55.641Z,26.31
2019-04-25T09:33:55.807Z,26.40
2019-04-25T09:34:55.983Z,26.37
2019-04-25T09:35:56.142Z,26.48
2019-04-25T09:36:56.310Z,26.40
2019-04-25T09:37:56.483Z,26.34
2019-04-25T09:38:56.628Z,26.25
2019-04-25T09:39:56.808Z,26.45
2019-04-25T09:40:56.981Z,26.89
2019-04-25T09:41:57.142Z,27.21
2019-04-25T09:42:57.330Z,27.37
2019-04-25T09:43:57.497Z,27.64
2019-04-25T09:44:57.666Z,27.73
2019-04-25T09:45:57.839Z,27.64
2019-04-25T09:46:58.019Z,27.73
2019-04-25T09:47:58.166Z,28.12
2019-04-25T09:48:58.326Z,28.23
2019-04-25T09:49:58.519Z,28.27
2019-04-25T09:50:58.686Z,28.29
2019-04-25T09:51:58.872Z,28.54
2019-04-25T09:52:59.026Z,28.27
2019-04-25T09:53:59.171Z,28.14
2019-04-25T09:54:59.353Z,28.35
2019-04-25T09:55:59.513Z,28.60
2019-04-25T09:56:59.689Z,28.67
2019-04-25T09:57:59.857Z,28.79
2019-04-25T09:59:00.036Z,29.22
2019-04-25T10:00:00.199Z,29.26
2019-04-25T10:01:00.378Z,29.20
2019-04-25T10:03:33.336Z,29.07
2019-04-25T10:04:34.511Z,29.39
2019-04-25T10:05:33.921Z,29.56
2019-04-25T10:06:33.393Z,29.76
2019-04-25T10:07:33.425Z,29.90
2019-04-25T10:08:34.272Z,30.08
2019-04-25T10:09:33.819Z,30.27
2019-04-25T10:10:33.954Z,30.43
2019-04-25T10:11:34.125Z,30.24
2019-04-25T10:12:34.302Z,30.68
2019-04-25T10:13:34.480Z,30.91
2019-04-25T10:14:34.659Z,31.10
2019-04-25T10:15:34.833Z,31.05
2019-04-25T10:16:35.072Z,30.70
2019-04-25T10:17:35.186Z,30.69
2019-04-25T10:18:35.365Z,30.44
2019-04-25T10:19:35.533Z,30.51
2019-04-25T10:20:35.758Z,30.55
2019-04-25T10:21:35.894Z,30.73
2019-04-25T10:22:36.040Z,30.40
2019-04-25T10:23:36.242Z,30.30
2019-04-25T10:24:37.400Z,30.05
2019-04-25T10:25:37.997Z,30.23
2019-04-25T10:26:37.610Z,30.15
2019-04-25T10:27:36.921Z,30.68
2019-04-25T10:28:37.094Z,31.12
2019-04-25T10:29:44.851Z,31.44
2019-04-25T10:30:37.447Z,31.69
2019-04-25T10:31:37.629Z,31.55
2019-04-25T10:32:37.807Z,32.08
2019-04-25T10:33:38.855Z,32.01
2019-04-25T10:34:38.155Z,31.66
2019-04-25T10:35:47.970Z,31.90
2019-04-25T10:36:39.873Z,31.69
2019-04-25T10:37:38.894Z,32.01
2019-04-25T10:38:40.162Z,32.16
2019-04-25T10:39:40.072Z,32.29
2019-04-25T10:40:39.368Z,31.89
2019-04-25T10:41:40.184Z,31.33
2019-04-25T10:42:40.651Z,31.10
2019-04-25T10:43:40.474Z,30.70
2019-04-25T10:44:40.200Z,30.00
2019-04-25T10:45:40.681Z,29.86
2019-04-25T10:46:40.282Z,29.93
2019-04-25T10:47:40.469Z,29.75
2019-04-25T10:48:41.802Z,29.86
2019-04-25T10:49:40.834Z,30.05
2019-04-25T10:50:41.743Z,30.03
2019-04-25T10:51:42.173Z,29.93
2019-04-25T10:52:41.549Z,30.32
2019-04-25T10:53:41.859Z,30.73
2019-04-25T10:54:41.744Z,31.06
2019-04-25T10:55:42.842Z,30.55
2019-04-25T10:56:42.095Z,30.55
2019-04-25T10:57:43.142Z,30.62
2019-04-25T10:58:43.983Z,30.57
2019-04-25T10:59:54.555Z,30.73
2019-04-25T11:00:44.855Z,30.91
2019-04-25T11:01:44.693Z,31.00
2019-04-25T11:02:43.790Z,30.87
2019-04-25T11:03:44.528Z,31.05
2019-04-25T11:04:44.573Z,30.63
2019-04-25T11:05:43.744Z,30.44
2019-04-25T11:06:45.346Z,30.13
2019-04-25T11:07:44.501Z,29.76
2019-04-25T11:08:44.932Z,29.50
2019-04-25T11:09:45.563Z,29.61
2019-04-25T11:10:47.505Z,29.50
2019-04-25T11:11:45.794Z,29.50
2019-04-25T11:12:45.431Z,29.47
2019-04-25T11:13:45.318Z,29.38
2019-04-25T11:14:46.370Z,29.14
2019-04-25T11:15:45.545Z,28.66
2019-04-25T11:16:46.610Z,28.17
2019-04-25T11:17:46.728Z,28.19
2019-04-25T11:18:46.403Z,27.80
2019-04-25T11:19:46.817Z,27.52
2019-04-25T11:20:46.451Z,27.82
2019-04-25T11:21:46.712Z,27.86
2019-04-25T11:22:47.269Z,27.75
2019-04-25T11:23:47.691Z,27.75
2019-04-25T11:24:47.189Z,27.67
2019-04-25T11:25:47.362Z,27.68
2019-04-25T11:26:50.142Z,27.45
2019-04-25T11:27:49.679Z,27.20
2019-04-25T11:28:48.677Z,27.35
2019-04-25T11:29:48.589Z,27.45
2019-04-25T11:30:48.259Z,27.71
2019-04-25T11:31:48.965Z,27.83
2019-04-25T11:32:48.615Z,27.95
2019-04-25T11:33:48.799Z,27.74
2019-04-25T11:34:48.976Z,27.70
2019-04-25T11:35:49.157Z,27.95
2019-04-25T11:36:49.336Z,27.80
2019-04-25T11:37:50.531Z,28.11
2019-04-25T11:38:49.695Z,28.01
2019-04-25T11:39:50.413Z,28.00
2019-04-25T11:40:51.283Z,28.04
2019-04-25T11:45:34.745Z,28.27
2019-04-25T11:46:34.919Z,28.17
2019-04-25T11:47:35.099Z,28.19
2019-04-25T11:48:35.277Z,27.64
2019-04-25T11:49:35.456Z,27.68
2019-04-25T11:50:37.008Z,27.49
2019-04-25T11:51:35.814Z,27.37
2019-04-25T11:52:35.993Z,27.63
2019-04-25T11:53:36.175Z,27.67
2019-04-25T11:54:36.354Z,27.78
2019-04-25T11:55:36.531Z,27.98
2019-04-25T11:56:36.709Z,28.29
2019-04-25T11:57:36.887Z,28.22
2019-04-25T11:58:37.065Z,28.38
2019-04-25T11:59:37.243Z,28.29
2019-04-25T12:00:37.423Z,28.48
